sensor_id;sensor_type;location;lat;lon;timestamp;pressure;altitude;pressure_sealevel;temperature;humidity
49827;BME280;35715;51.570;6.036;2023-07-29T00:00:39;100593.44;;;21.17;94.91
49827;BME280;35715;51.570;6.036;2023-07-29T00:03:05;100590.78;;;21.16;95.26
49827;BME280;35715;51.570;6.036;2023-07-29T00:05:30;100588.94;;;21.12;95.32
49827;BME280;35715;51.570;6.036;2023-07-29T00:07:56;100586.22;;;21.07;95.25
49827;BME280;35715;51.570;6.036;2023-07-29T00:10:21;100579.16;;;21.04;95.64
49827;BME280;35715;51.570;6.036;2023-07-29T00:12:46;100569.47;;;20.99;95.74
49827;BME280;35715;51.570;6.036;2023-07-29T00:15:12;100572.00;;;20.94;95.47
49827;BME280;35715;51.570;6.036;2023-07-29T00:17:37;100567.56;;;20.91;96.11
49827;BME280;35715;51.570;6.036;2023-07-29T00:20:03;100564.00;;;20.88;96.21
49827;BME280;35715;51.570;6.036;2023-07-29T00:22:28;100567.53;;;20.90;96.69
49827;BME280;35715;51.570;6.036;2023-07-29T00:24:54;100565.78;;;20.90;96.79
49827;BME280;35715;51.570;6.036;2023-07-29T00:27:21;100561.44;;;20.91;97.13
49827;BME280;35715;51.570;6.036;2023-07-29T00:29:46;100555.34;;;20.94;96.93
49827;BME280;35715;51.570;6.036;2023-07-29T00:32:12;100551.00;;;20.94;97.06
49827;BME280;35715;51.570;6.036;2023-07-29T00:34:37;100551.94;;;20.98;97.09
49827;BME280;35715;51.570;6.036;2023-07-29T00:37:02;100553.75;;;21.00;97.05
49827;BME280;35715;51.570;6.036;2023-07-29T00:39:28;100552.91;;;21.03;96.84
49827;BME280;35715;51.570;6.036;2023-07-29T00:41:53;100545.97;;;21.05;96.99
49827;BME280;35715;51.570;6.036;2023-07-29T00:44:19;100548.63;;;21.06;96.80
49827;BME280;35715;51.570;6.036;2023-07-29T00:46:45;100553.94;;;21.09;96.76
49827;BME280;35715;51.570;6.036;2023-07-29T00:49:11;100550.47;;;21.11;97.00
49827;BME280;35715;51.570;6.036;2023-07-29T00:51:36;100556.59;;;21.11;96.88
49827;BME280;35715;51.570;6.036;2023-07-29T00:54:02;100550.50;;;21.12;97.11
49827;BME280;35715;51.570;6.036;2023-07-29T00:56:28;100556.59;;;21.11;97.11
49827;BME280;35715;51.570;6.036;2023-07-29T00:58:54;100558.28;;;21.07;96.86
49827;BME280;35715;51.570;6.036;2023-07-29T01:01:24;100551.28;;;21.08;97.06
49827;BME280;35715;51.570;6.036;2023-07-29T01:03:50;100552.13;;;21.07;97.14
49827;BME280;35715;51.570;6.036;2023-07-29T01:06:34;100554.78;;;21.08;97.08
49827;BME280;35715;51.570;6.036;2023-07-29T01:09:10;100553.91;;;21.08;97.09
49827;BME280;35715;51.570;6.036;2023-07-29T01:11:55;100552.16;;;21.08;97.18
49827;BME280;35715;51.570;6.036;2023-07-29T01:17:42;100541.59;;;21.05;97.30
49827;BME280;35715;51.570;6.036;2023-07-29T01:20:09;100548.50;;;21.00;97.42
49827;BME280;35715;51.570;6.036;2023-07-29T01:22:35;100550.28;;;21.03;97.82
49827;BME280;35715;51.570;6.036;2023-07-29T01:25:02;100552.06;;;21.04;97.66
49827;BME280;35715;51.570;6.036;2023-07-29T01:27:29;100553.88;;;21.06;98.06
49827;BME280;35715;51.570;6.036;2023-07-29T01:29:55;100553.06;;;21.09;97.94
49827;BME280;35715;51.570;6.036;2023-07-29T01:32:32;100547.69;;;21.04;97.27
49827;BME280;35715;51.570;6.036;2023-07-29T01:35:16;100548.50;;;21.00;97.54
49827;BME280;35715;51.570;6.036;2023-07-29T01:37:45;100552.00;;;21.01;97.83
49827;BME280;35715;51.570;6.036;2023-07-29T01:40:13;100553.72;;;20.99;97.93
49827;BME280;35715;51.570;6.036;2023-07-29T01:42:40;100544.91;;;20.97;98.11
49827;BME280;35715;51.570;6.036;2023-07-29T01:45:05;100541.41;;;20.96;98.59
49827;BME280;35715;51.570;6.036;2023-07-29T01:47:31;100534.44;;;20.98;98.67
49827;BME280;35715;51.570;6.036;2023-07-29T01:49:56;100538.81;;;20.98;98.69
49827;BME280;35715;51.570;6.036;2023-07-29T01:52:21;100533.56;;;20.98;98.60
49827;BME280;35715;51.570;6.036;2023-07-29T01:54:48;100534.44;;;20.98;98.46
49827;BME280;35715;51.570;6.036;2023-07-29T01:57:13;100530.06;;;20.96;98.54
49827;BME280;35715;51.570;6.036;2023-07-29T01:59:38;100531.78;;;20.95;98.52
49827;BME280;35715;51.570;6.036;2023-07-29T02:02:04;100538.78;;;20.96;98.63
49827;BME280;35715;51.570;6.036;2023-07-29T02:04:29;100537.88;;;20.94;98.43
49827;BME280;35715;51.570;6.036;2023-07-29T02:06:54;100534.34;;;20.94;98.71
49827;BME280;35715;51.570;6.036;2023-07-29T02:09:20;100530.00;;;20.92;98.80
49827;BME280;35715;51.570;6.036;2023-07-29T02:11:45;100535.22;;;20.91;99.14
49827;BME280;35715;51.570;6.036;2023-07-29T02:14:12;100529.97;;;20.91;98.97
49827;BME280;35715;51.570;6.036;2023-07-29T02:16:37;100528.13;;;20.87;98.89
49827;BME280;35715;51.570;6.036;2023-07-29T02:19:04;100532.53;;;20.88;99.22
49827;BME280;35715;51.570;6.036;2023-07-29T02:21:29;100527.28;;;20.88;99.48
49827;BME280;35715;51.570;6.036;2023-07-29T02:23:54;100529.84;;;20.85;99.26
49827;BME280;35715;51.570;6.036;2023-07-29T02:26:20;100529.78;;;20.82;99.58
49827;BME280;35715;51.570;6.036;2023-07-29T02:28:45;100534.09;;;20.80;99.69
49827;BME280;35715;51.570;6.036;2023-07-29T02:31:20;100544.53;;;20.78;99.39
49827;BME280;35715;51.570;6.036;2023-07-29T02:33:46;100539.22;;;20.75;99.66
49827;BME280;35715;51.570;6.036;2023-07-29T02:36:12;100535.72;;;20.74;99.85
49827;BME280;35715;51.570;6.036;2023-07-29T02:38:38;100539.19;;;20.73;99.82
49827;BME280;35715;51.570;6.036;2023-07-29T02:41:04;100537.38;;;20.71;99.76
49827;BME280;35715;51.570;6.036;2023-07-29T02:43:29;100539.13;;;20.70;100.00
49827;BME280;35715;51.570;6.036;2023-07-29T02:45:54;100539.06;;;20.67;99.68
49827;BME280;35715;51.570;6.036;2023-07-29T02:48:20;100533.66;;;20.61;99.74
49827;BME280;35715;51.570;6.036;2023-07-29T02:50:45;100520.41;;;20.53;99.50
49827;BME280;35715;51.570;6.036;2023-07-29T02:53:11;100525.56;;;20.50;99.91
49827;BME280;35715;51.570;6.036;2023-07-29T02:55:39;100530.75;;;20.47;99.84
49827;BME280;35715;51.570;6.036;2023-07-29T02:58:05;100531.44;;;20.40;99.68
49827;BME280;35715;51.570;6.036;2023-07-29T03:00:33;100535.72;;;20.35;99.17
49827;BME280;35715;51.570;6.036;2023-07-29T03:02:59;100536.44;;;20.29;98.89
49827;BME280;35715;51.570;6.036;2023-07-29T03:05:27;100532.81;;;20.24;98.07
49827;BME280;35715;51.570;6.036;2023-07-29T03:07:53;100534.47;;;20.19;97.16
49827;BME280;35715;51.570;6.036;2023-07-29T03:10:18;100541.28;;;20.11;96.03
49827;BME280;35715;51.570;6.036;2023-07-29T03:12:44;100532.44;;;20.07;94.76
49827;BME280;35715;51.570;6.036;2023-07-29T03:15:09;100539.34;;;20.03;94.27
49827;BME280;35715;51.570;6.036;2023-07-29T03:17:35;100546.25;;;20.01;93.81
49827;BME280;35715;51.570;6.036;2023-07-29T03:20:00;100536.53;;;19.96;92.75
49827;BME280;35715;51.570;6.036;2023-07-29T03:22:25;100539.09;;;19.93;92.59
49827;BME280;35715;51.570;6.036;2023-07-29T03:24:51;100535.53;;;19.91;92.56
49827;BME280;35715;51.570;6.036;2023-07-29T03:27:16;100534.56;;;19.87;92.51
49827;BME280;35715;51.570;6.036;2023-07-29T03:29:41;100527.56;;;19.86;92.32
49827;BME280;35715;51.570;6.036;2023-07-29T03:32:07;100520.56;;;19.85;92.61
49827;BME280;35715;51.570;6.036;2023-07-29T03:34:33;100525.81;;;19.85;92.95
49827;BME280;35715;51.570;6.036;2023-07-29T03:37:00;100529.25;;;19.84;93.16
49827;BME280;35715;51.570;6.036;2023-07-29T03:39:26;100530.09;;;19.83;93.06
49827;BME280;35715;51.570;6.036;2023-07-29T03:41:51;100527.47;;;19.83;92.63
49827;BME280;35715;51.570;6.036;2023-07-29T03:44:16;100526.53;;;19.79;92.65
49827;BME280;35715;51.570;6.036;2023-07-29T03:46:43;100521.25;;;19.78;92.43
49827;BME280;35715;51.570;6.036;2023-07-29T03:49:09;100526.50;;;19.78;92.75
49827;BME280;35715;51.570;6.036;2023-07-29T03:51:34;100538.63;;;19.76;92.31
49827;BME280;35715;51.570;6.036;2023-07-29T03:53:59;100535.88;;;19.71;91.61
49827;BME280;35715;51.570;6.036;2023-07-29T03:56:25;100543.63;;;19.66;90.82
49827;BME280;35715;51.570;6.036;2023-07-29T03:58:52;100549.69;;;19.64;90.68
49827;BME280;35715;51.570;6.036;2023-07-29T04:01:18;100552.25;;;19.62;90.45
49827;BME280;35715;51.570;6.036;2023-07-29T04:03:47;100552.28;;;19.64;90.19
49827;BME280;35715;51.570;6.036;2023-07-29T04:06:12;100550.47;;;19.61;90.46
49827;BME280;35715;51.570;6.036;2023-07-29T04:08:38;100540.75;;;19.57;89.52
49827;BME280;35715;51.570;6.036;2023-07-29T04:11:03;100548.53;;;19.54;89.74
49827;BME280;35715;51.570;6.036;2023-07-29T04:13:28;100537.97;;;19.51;89.68
49827;BME280;35715;51.570;6.036;2023-07-29T04:15:54;100547.50;;;19.47;89.38
49827;BME280;35715;51.570;6.036;2023-07-29T04:18:19;100555.28;;;19.44;89.11
49827;BME280;35715;51.570;6.036;2023-07-29T04:20:45;100550.06;;;19.46;89.18
49827;BME280;35715;51.570;6.036;2023-07-29T04:23:10;100555.22;;;19.43;89.07
49827;BME280;35715;51.570;6.036;2023-07-29T04:25:35;100544.72;;;19.41;88.37
49827;BME280;35715;51.570;6.036;2023-07-29T04:28:01;100528.03;;;19.38;88.70
49827;BME280;35715;51.570;6.036;2023-07-29T04:30:28;100518.41;;;19.35;88.35
49827;BME280;35715;51.570;6.036;2023-07-29T04:32:53;100510.44;;;19.30;87.91
49827;BME280;35715;51.570;6.036;2023-07-29T04:35:19;100517.41;;;19.31;88.67
49827;BME280;35715;51.570;6.036;2023-07-29T04:37:44;100517.50;;;19.35;88.69
49827;BME280;35715;51.570;6.036;2023-07-29T04:40:10;100512.34;;;19.38;88.91
49827;BME280;35715;51.570;6.036;2023-07-29T04:42:36;100519.38;;;19.40;88.85
49827;BME280;35715;51.570;6.036;2023-07-29T04:45:02;100514.19;;;19.42;88.99
49827;BME280;35715;51.570;6.036;2023-07-29T04:47:27;100525.47;;;19.39;89.00
49827;BME280;35715;51.570;6.036;2023-07-29T04:49:53;100534.22;;;19.40;89.43
49827;BME280;35715;51.570;6.036;2023-07-29T04:52:18;100548.13;;;19.39;89.26
49827;BME280;35715;51.570;6.036;2023-07-29T04:54:44;100574.22;;;19.36;89.38
49827;BME280;35715;51.570;6.036;2023-07-29T04:57:10;100575.00;;;19.33;88.88
49827;BME280;35715;51.570;6.036;2023-07-29T04:59:35;100578.34;;;19.27;88.66
49827;BME280;35715;51.570;6.036;2023-07-29T05:02:01;100580.03;;;19.25;89.01
49827;BME280;35715;51.570;6.036;2023-07-29T05:04:26;100576.63;;;19.28;89.19
49827;BME280;35715;51.570;6.036;2023-07-29T05:06:51;100577.53;;;19.30;88.93
49827;BME280;35715;51.570;6.036;2023-07-29T05:09:18;100570.69;;;19.33;88.79
49827;BME280;35715;51.570;6.036;2023-07-29T05:11:44;100579.56;;;19.40;89.30
49827;BME280;35715;51.570;6.036;2023-07-29T05:14:14;100571.34;;;19.26;89.23
49827;BME280;35715;51.570;6.036;2023-07-29T05:16:39;100561.09;;;19.34;89.34
49827;BME280;35715;51.570;6.036;2023-07-29T05:19:04;100569.09;;;19.40;89.83
49827;BME280;35715;51.570;6.036;2023-07-29T05:21:30;100560.41;;;19.41;89.44
49827;BME280;35715;51.570;6.036;2023-07-29T05:23:56;100565.69;;;19.43;89.26
49827;BME280;35715;51.570;6.036;2023-07-29T05:26:22;100579.59;;;19.42;88.97
49827;BME280;35715;51.570;6.036;2023-07-29T05:28:47;100580.47;;;19.42;88.37
49827;BME280;35715;51.570;6.036;2023-07-29T05:31:13;100587.50;;;19.43;88.61
49827;BME280;35715;51.570;6.036;2023-07-29T05:33:38;100597.09;;;19.43;88.50
49827;BME280;35715;51.570;6.036;2023-07-29T05:36:04;100604.16;;;19.47;88.34
49827;BME280;35715;51.570;6.036;2023-07-29T05:38:30;100605.28;;;19.55;88.06
49827;BME280;35715;51.570;6.036;2023-07-29T05:40:56;100603.66;;;19.60;88.24
49827;BME280;35715;51.570;6.036;2023-07-29T05:43:21;100599.28;;;19.59;87.67
49827;BME280;35715;51.570;6.036;2023-07-29T05:45:46;100602.78;;;19.60;87.26
49827;BME280;35715;51.570;6.036;2023-07-29T05:48:12;100606.34;;;19.63;87.24
49827;BME280;35715;51.570;6.036;2023-07-29T05:50:37;100606.38;;;19.65;87.60
49827;BME280;35715;51.570;6.036;2023-07-29T05:53:02;100605.47;;;19.63;87.03
49827;BME280;35715;51.570;6.036;2023-07-29T05:55:28;100601.06;;;19.62;86.99
49827;BME280;35715;51.570;6.036;2023-07-29T05:57:54;100602.91;;;19.64;86.35
49827;BME280;35715;51.570;6.036;2023-07-29T06:00:20;100595.03;;;19.64;85.82
49827;BME280;35715;51.570;6.036;2023-07-29T06:02:45;100604.72;;;19.67;85.30
49827;BME280;35715;51.570;6.036;2023-07-29T06:05:11;100600.31;;;19.66;85.13
49827;BME280;35715;51.570;6.036;2023-07-29T06:07:36;100603.94;;;19.71;84.80
49827;BME280;35715;51.570;6.036;2023-07-29T06:10:02;100598.69;;;19.71;85.00
49827;BME280;35715;51.570;6.036;2023-07-29T06:12:27;100608.28;;;19.71;84.70
49827;BME280;35715;51.570;6.036;2023-07-29T06:14:53;100599.56;;;19.70;84.48
49827;BME280;35715;51.570;6.036;2023-07-29T06:17:18;100599.59;;;19.72;84.62
49827;BME280;35715;51.570;6.036;2023-07-29T06:19:43;100593.63;;;19.76;85.17
49827;BME280;35715;51.570;6.036;2023-07-29T06:22:09;100600.84;;;19.84;84.33
49827;BME280;35715;51.570;6.036;2023-07-29T06:24:35;100602.72;;;20.25;84.00
49827;BME280;35715;51.570;6.036;2023-07-29T06:27:00;100595.25;;;20.80;81.94
49827;BME280;35715;51.570;6.036;2023-07-29T06:29:26;100588.50;;;21.34;80.16
49827;BME280;35715;51.570;6.036;2023-07-29T06:31:51;100593.59;;;21.71;77.53
49827;BME280;35715;51.570;6.036;2023-07-29T06:34:17;100604.66;;;21.53;76.85
49827;BME280;35715;51.570;6.036;2023-07-29T06:36:43;100590.34;;;21.38;76.23
49827;BME280;35715;51.570;6.036;2023-07-29T06:39:09;100596.50;;;21.40;76.07
49827;BME280;35715;51.570;6.036;2023-07-29T06:41:34;100586.31;;;21.56;76.31
49827;BME280;35715;51.570;6.036;2023-07-29T06:44:00;100597.09;;;21.70;74.88
49827;BME280;35715;51.570;6.036;2023-07-29T06:46:25;100602.38;;;21.71;75.28
49827;BME280;35715;51.570;6.036;2023-07-29T06:48:51;100606.59;;;21.63;74.88
49827;BME280;35715;51.570;6.036;2023-07-29T06:51:16;100610.09;;;21.62;74.93
49827;BME280;35715;51.570;6.036;2023-07-29T06:53:42;100605.81;;;21.67;74.77
49827;BME280;35715;51.570;6.036;2023-07-29T06:56:07;100598.22;;;21.84;74.75
49827;BME280;35715;51.570;6.036;2023-07-29T06:58:32;100598.44;;;21.96;74.27
49827;BME280;35715;51.570;6.036;2023-07-29T07:00:58;100600.56;;;22.74;72.86
49827;BME280;35715;51.570;6.036;2023-07-29T07:03:23;100605.16;;;23.63;69.54
49827;BME280;35715;51.570;6.036;2023-07-29T07:05:49;100600.41;;;24.15;67.65
49827;BME280;35715;51.570;6.036;2023-07-29T07:08:15;100604.34;;;24.76;65.43
49827;BME280;35715;51.570;6.036;2023-07-29T07:10:40;100608.09;;;25.24;62.81
49827;BME280;35715;51.570;6.036;2023-07-29T07:13:06;100599.38;;;25.38;61.60
49827;BME280;35715;51.570;6.036;2023-07-29T07:15:31;100599.41;;;25.62;60.63
49827;BME280;35715;51.570;6.036;2023-07-29T07:17:57;100608.91;;;25.14;59.96
49827;BME280;35715;51.570;6.036;2023-07-29T07:20:22;100608.19;;;25.49;59.37
49827;BME280;35715;51.570;6.036;2023-07-29T07:22:47;100613.59;;;26.01;58.33
49827;BME280;35715;51.570;6.036;2023-07-29T07:25:13;100605.59;;;26.74;56.82
49827;BME280;35715;51.570;6.036;2023-07-29T07:27:38;100615.34;;;26.39;56.96
49827;BME280;35715;51.570;6.036;2023-07-29T07:30:04;100621.50;;;26.35;57.11
49827;BME280;35715;51.570;6.036;2023-07-29T07:32:29;100620.66;;;26.12;56.54
49827;BME280;35715;51.570;6.036;2023-07-29T07:34:55;100622.38;;;26.33;55.99
49827;BME280;35715;51.570;6.036;2023-07-29T07:37:20;100620.50;;;27.07;54.44
49827;BME280;35715;51.570;6.036;2023-07-29T07:39:49;100619.16;;;27.89;52.57
49827;BME280;35715;51.570;6.036;2023-07-29T07:42:14;100617.22;;;28.15;50.08
49827;BME280;35715;51.570;6.036;2023-07-29T07:44:39;100621.25;;;28.57;49.45
49827;BME280;35715;51.570;6.036;2023-07-29T07:47:05;100620.91;;;27.96;49.97
49827;BME280;35715;51.570;6.036;2023-07-29T07:49:31;100616.28;;;28.23;50.10
49827;BME280;35715;51.570;6.036;2023-07-29T07:51:56;100619.41;;;27.55;51.16
49827;BME280;35715;51.570;6.036;2023-07-29T07:54:21;100626.41;;;27.65;51.15
49827;BME280;35715;51.570;6.036;2023-07-29T07:56:47;100624.97;;;26.81;52.37
49827;BME280;35715;51.570;6.036;2023-07-29T07:59:12;100629.44;;;26.17;53.54
49827;BME280;35715;51.570;6.036;2023-07-29T08:01:38;100624.97;;;25.66;55.49
49827;BME280;35715;51.570;6.036;2023-07-29T08:04:04;100629.28;;;25.32;57.21
49827;BME280;35715;51.570;6.036;2023-07-29T08:06:31;100630.81;;;24.91;57.54
49827;BME280;35715;51.570;6.036;2023-07-29T08:08:57;100622.84;;;24.82;58.38
49827;BME280;35715;51.570;6.036;2023-07-29T08:11:22;100628.47;;;25.58;57.33
49827;BME280;35715;51.570;6.036;2023-07-29T08:13:48;100616.06;;;25.37;58.25
49827;BME280;35715;51.570;6.036;2023-07-29T08:16:13;100624.63;;;24.80;58.90
49827;BME280;35715;51.570;6.036;2023-07-29T08:18:39;100620.16;;;24.73;59.98
49827;BME280;35715;51.570;6.036;2023-07-29T08:21:04;100615.84;;;24.92;58.78
49827;BME280;35715;51.570;6.036;2023-07-29T08:23:31;100618.41;;;24.75;59.50
49827;BME280;35715;51.570;6.036;2023-07-29T08:25:58;100620.09;;;24.60;59.66
49827;BME280;35715;51.570;6.036;2023-07-29T08:28:32;100621.72;;;24.46;60.85
49827;BME280;35715;51.570;6.036;2023-07-29T08:30:58;100618.13;;;24.33;61.23
49827;BME280;35715;51.570;6.036;2023-07-29T08:33:24;100624.16;;;24.21;61.57
49827;BME280;35715;51.570;6.036;2023-07-29T08:35:50;100627.63;;;24.14;62.51
49827;BME280;35715;51.570;6.036;2023-07-29T08:38:15;100637.13;;;23.97;62.12
49827;BME280;35715;51.570;6.036;2023-07-29T08:43:29;100638.88;;;23.98;62.04
49827;BME280;35715;51.570;6.036;2023-07-29T08:45:59;100650.09;;;23.78;61.93
49827;BME280;35715;51.570;6.036;2023-07-29T08:48:40;100650.34;;;23.98;62.25
49827;BME280;35715;51.570;6.036;2023-07-29T08:51:08;100644.28;;;24.12;62.25
49827;BME280;35715;51.570;6.036;2023-07-29T08:53:34;100642.53;;;24.09;62.78
49827;BME280;35715;51.570;6.036;2023-07-29T08:56:00;100655.66;;;24.04;62.11
49827;BME280;35715;51.570;6.036;2023-07-29T08:58:26;100651.16;;;23.92;61.69
49827;BME280;35715;51.570;6.036;2023-07-29T09:00:52;100651.84;;;23.79;62.16
49827;BME280;35715;51.570;6.036;2023-07-29T09:03:17;100655.38;;;23.80;62.57
49827;BME280;35715;51.570;6.036;2023-07-29T09:05:43;100651.84;;;23.79;62.93
49827;BME280;35715;51.570;6.036;2023-07-29T09:08:09;100655.31;;;23.75;62.85
49827;BME280;35715;51.570;6.036;2023-07-29T09:10:36;100645.56;;;23.66;63.06
49827;BME280;35715;51.570;6.036;2023-07-29T09:13:02;100642.91;;;23.63;63.82
49827;BME280;35715;51.570;6.036;2023-07-29T09:15:30;100637.59;;;23.62;63.87
49827;BME280;35715;51.570;6.036;2023-07-29T09:17:57;100635.91;;;23.64;63.43
49827;BME280;35715;51.570;6.036;2023-07-29T09:20:26;100631.66;;;23.80;63.61
49827;BME280;35715;51.570;6.036;2023-07-29T09:22:54;100627.25;;;24.82;61.51
49827;BME280;35715;51.570;6.036;2023-07-29T09:25:27;100635.53;;;25.66;58.29
49827;BME280;35715;51.570;6.036;2023-07-29T09:27:58;100618.72;;;25.38;57.32
49827;BME280;35715;51.570;6.036;2023-07-29T09:30:25;100620.38;;;25.18;58.31
49827;BME280;35715;51.570;6.036;2023-07-29T09:32:57;100620.38;;;25.21;58.66
49827;BME280;35715;51.570;6.036;2023-07-29T09:35:23;100613.47;;;25.55;59.46
49827;BME280;35715;51.570;6.036;2023-07-29T09:37:50;100610.94;;;26.01;58.19
49827;BME280;35715;51.570;6.036;2023-07-29T09:40:17;100608.25;;;26.72;56.45
49827;BME280;35715;51.570;6.036;2023-07-29T09:42:53;100602.81;;;28.44;52.55
49827;BME280;35715;51.570;6.036;2023-07-29T09:45:23;100611.19;;;29.60;49.59
49827;BME280;35715;51.570;6.036;2023-07-29T09:47:50;100605.47;;;29.24;48.37
49827;BME280;35715;51.570;6.036;2023-07-29T09:50:16;100615.91;;;28.63;48.08
49827;BME280;35715;51.570;6.036;2023-07-29T09:52:42;100622.88;;;29.48;47.20
49827;BME280;35715;51.570;6.036;2023-07-29T09:55:11;100616.78;;;30.02;46.48
49827;BME280;35715;51.570;6.036;2023-07-29T09:57:37;100616.50;;;30.17;45.06
49827;BME280;35715;51.570;6.036;2023-07-29T10:00:04;100613.41;;;29.90;44.93
49827;BME280;35715;51.570;6.036;2023-07-29T10:02:36;100604.34;;;29.42;45.16
49827;BME280;35715;51.570;6.036;2023-07-29T10:05:02;100615.03;;;29.37;45.32
49827;BME280;35715;51.570;6.036;2023-07-29T10:07:29;100622.97;;;30.01;44.61
49827;BME280;35715;51.570;6.036;2023-07-29T10:09:55;100616.69;;;30.06;43.97
49827;BME280;35715;51.570;6.036;2023-07-29T10:12:21;100611.47;;;29.41;45.43
49827;BME280;35715;51.570;6.036;2023-07-29T10:14:48;100616.53;;;28.88;45.80
49827;BME280;35715;51.570;6.036;2023-07-29T10:17:15;100610.66;;;28.55;46.36
49827;BME280;35715;51.570;6.036;2023-07-29T10:19:41;100616.94;;;28.45;46.68
49827;BME280;35715;51.570;6.036;2023-07-29T10:22:09;100619.66;;;28.40;46.40
49827;BME280;35715;51.570;6.036;2023-07-29T10:24:37;100620.72;;;28.18;47.20
49827;BME280;35715;51.570;6.036;2023-07-29T10:27:06;100621.78;;;27.92;47.89
49827;BME280;35715;51.570;6.036;2023-07-29T10:29:38;100622.81;;;27.77;48.77
49827;BME280;35715;51.570;6.036;2023-07-29T10:32:04;100625.47;;;27.75;49.38
49827;BME280;35715;51.570;6.036;2023-07-29T10:34:31;100628.16;;;27.63;49.22
49827;BME280;35715;51.570;6.036;2023-07-29T10:36:59;100615.13;;;27.20;49.36
49827;BME280;35715;51.570;6.036;2023-07-29T10:39:25;100611.56;;;27.29;50.19
49827;BME280;35715;51.570;6.036;2023-07-29T10:42:01;100614.22;;;27.29;50.04
49827;BME280;35715;51.570;6.036;2023-07-29T10:47:31;100601.13;;;30.35;44.67
49827;BME280;35715;51.570;6.036;2023-07-29T10:49:59;100591.69;;;30.67;43.39
49827;BME280;35715;51.570;6.036;2023-07-29T10:54:59;100591.53;;;29.70;44.89
49827;BME280;35715;51.570;6.036;2023-07-29T10:57:38;100594.19;;;29.70;44.43
49827;BME280;35715;51.570;6.036;2023-07-29T11:00:04;100596.34;;;30.02;43.70
49827;BME280;35715;51.570;6.036;2023-07-29T11:02:37;100606.91;;;29.49;44.87
49827;BME280;35715;51.570;6.036;2023-07-29T11:05:15;100592.38;;;29.07;44.41
49827;BME280;35715;51.570;6.036;2023-07-29T11:07:48;100597.31;;;28.64;44.65
49827;BME280;35715;51.570;6.036;2023-07-29T11:10:14;100591.38;;;28.39;46.36
49827;BME280;35715;51.570;6.036;2023-07-29T11:12:50;100597.72;;;28.21;47.44
49827;BME280;35715;51.570;6.036;2023-07-29T11:15:22;100593.13;;;28.37;46.32
49827;BME280;35715;51.570;6.036;2023-07-29T11:17:58;100595.50;;;28.71;46.58
49827;BME280;35715;51.570;6.036;2023-07-29T11:22:54;100593.88;;;28.52;46.54
49827;BME280;35715;51.570;6.036;2023-07-29T11:25:21;100598.53;;;28.29;46.37
49827;BME280;35715;51.570;6.036;2023-07-29T11:27:48;100602.31;;;28.01;47.20
49827;BME280;35715;51.570;6.036;2023-07-29T11:30:14;100592.66;;;27.87;46.94
49827;BME280;35715;51.570;6.036;2023-07-29T11:32:43;100606.84;;;27.85;47.39
49827;BME280;35715;51.570;6.036;2023-07-29T11:35:13;100596.22;;;27.85;48.58
49827;BME280;35715;51.570;6.036;2023-07-29T11:37:41;100594.56;;;27.70;48.55
49827;BME280;35715;51.570;6.036;2023-07-29T11:40:07;100595.56;;;27.52;48.83
49827;BME280;35715;51.570;6.036;2023-07-29T11:42:36;100597.41;;;27.40;48.59
49827;BME280;35715;51.570;6.036;2023-07-29T11:45:02;100587.72;;;27.35;49.04
49827;BME280;35715;51.570;6.036;2023-07-29T11:47:29;100591.25;;;27.35;49.46
49827;BME280;35715;51.570;6.036;2023-07-29T11:49:58;100593.06;;;27.22;49.32
49827;BME280;35715;51.570;6.036;2023-07-29T11:52:25;100591.28;;;27.20;49.45
49827;BME280;35715;51.570;6.036;2023-07-29T11:54:52;100592.19;;;27.19;50.45
49827;BME280;35715;51.570;6.036;2023-07-29T11:57:18;100593.09;;;27.15;49.87
49827;BME280;35715;51.570;6.036;2023-07-29T11:59:43;100589.59;;;27.08;49.64
49827;BME280;35715;51.570;6.036;2023-07-29T12:02:14;100590.44;;;27.13;50.45
49827;BME280;35715;51.570;6.036;2023-07-29T12:04:41;100592.16;;;27.23;49.81
49827;BME280;35715;51.570;6.036;2023-07-29T12:07:08;100580.66;;;27.35;51.41
49827;BME280;35715;51.570;6.036;2023-07-29T12:09:34;100576.22;;;27.31;50.67
49827;BME280;35715;51.570;6.036;2023-07-29T12:12:01;100581.59;;;27.19;51.19
49827;BME280;35715;51.570;6.036;2023-07-29T12:14:28;100588.75;;;26.98;50.39
49827;BME280;35715;51.570;6.036;2023-07-29T12:16:53;100595.91;;;26.68;50.37
49827;BME280;35715;51.570;6.036;2023-07-29T12:19:19;100591.50;;;26.56;50.89
49827;BME280;35715;51.570;6.036;2023-07-29T12:21:47;100607.41;;;26.39;53.54
49827;BME280;35715;51.570;6.036;2023-07-29T12:24:15;100620.66;;;26.16;57.27
49827;BME280;35715;51.570;6.036;2023-07-29T12:26:41;100620.56;;;25.84;61.95
49827;BME280;35715;51.570;6.036;2023-07-29T12:29:18;100619.59;;;25.37;62.81
49827;BME280;35715;51.570;6.036;2023-07-29T12:31:46;100627.41;;;25.11;65.18
49827;BME280;35715;51.570;6.036;2023-07-29T12:34:21;100615.78;;;24.78;68.29
49827;BME280;35715;51.570;6.036;2023-07-29T12:36:49;100622.66;;;24.54;68.43
49827;BME280;35715;51.570;6.036;2023-07-29T12:39:29;100619.91;;;24.42;71.48
49827;BME280;35715;51.570;6.036;2023-07-29T12:41:56;100618.09;;;24.32;71.46
49827;BME280;35715;51.570;6.036;2023-07-29T12:44:30;100619.78;;;24.25;73.20
49827;BME280;35715;51.570;6.036;2023-07-29T12:46:56;100625.03;;;24.20;73.94
49827;BME280;35715;51.570;6.036;2023-07-29T12:49:21;100623.22;;;24.16;74.33
49827;BME280;35715;51.570;6.036;2023-07-29T12:51:47;100623.19;;;24.12;74.76
49827;BME280;35715;51.570;6.036;2023-07-29T12:54:13;100621.41;;;24.06;75.91
49827;BME280;35715;51.570;6.036;2023-07-29T12:56:38;100624.91;;;24.05;77.44
49827;BME280;35715;51.570;6.036;2023-07-29T12:59:05;100618.75;;;24.03;77.29
49827;BME280;35715;51.570;6.036;2023-07-29T13:01:30;100619.59;;;24.02;75.94